This is the latest recevied weather packets stored in our database for station/object KK7RJD. If no packets are shown the sender has not sent any weather packets the latest 10 day(s).
| Time | Temp. | Humidity | Pressure | Rain* | Wind** | Luminosity | Snow |
|---|---|---|---|---|---|---|---|
| 1777729183 | 7.78° C | 47% | 1019.3 hPa | 0 mm | - | 155 W/m² | - |
| 1777728879 | 7.22° C | 46% | 1019.4 hPa | 0 mm | - | 140 W/m² | - |
| 1777728577 | 6.67° C | 52% | 1019.4 hPa | 0 mm | - | 123 W/m² | - |
| 1777728274 | 6.11° C | 57% | 1019.2 hPa | 0 mm | - | 112 W/m² | - |
| 1777727971 | 5.56° C | 54% | 1019.3 hPa | 0 mm | - | 100 W/m² | - |
| 1777727667 | 5° C | 57% | 1019.2 hPa | 0 mm | - | 90 W/m² | - |
| 1777727365 | 4.44° C | 60% | 1019 hPa | 0 mm | - | 79 W/m² | - |
| 1777727062 | 3.33° C | 62% | 1019.1 hPa | 0 mm | - | 69 W/m² | - |
| 1777726759 | 3.33° C | 61% | 1019 hPa | 0 mm | - | 60 W/m² | - |
| 1777726457 | 2.78° C | 64% | 1019.1 hPa | 0 mm | - | 52 W/m² | - |
| 1777726153 | 2.22° C | 61% | 1019.1 hPa | 0 mm | - | 44 W/m² | - |
| 1777725850 | 1.67° C | 63% | 1019 hPa | 0 mm | - | 37 W/m² | - |
| 1777725548 | 1.11° C | 64% | 1019 hPa | 0 mm | - | 31 W/m² | - |
| 1777725245 | 0.56° C | 66% | 1018.9 hPa | 0 mm | - | 25 W/m² | - |
| 1777724942 | 0.56° C | 68% | 1019 hPa | 0 mm | - | 20 W/m² | - |
| 1777724638 | 0.56° C | 68% | 1019 hPa | 0 mm | - | 16 W/m² | - |
| 1777724336 | 0° C | 67% | 1018.9 hPa | 0 mm | - | 12 W/m² | - |
| 1777724033 | 0° C | 69% | 1018.9 hPa | 0 mm | - | 9 W/m² | - |
| 1777723731 | 0° C | 68% | 1018.6 hPa | 0 mm | - | 6 W/m² | - |
| 1777723426 | 0.56° C | 67% | 1018.7 hPa | 0 mm | - | 4 W/m² | - |
| 1777723124 | 1.11° C | 66% | 1018.7 hPa | 0 mm | - | 2 W/m² | - |
| 1777722821 | 1.11° C | 66% | 1018.7 hPa | 0 mm | - | 1 W/m² | - |
| 1777722517 | 1.11° C | 65% | 1018.7 hPa | 0 mm | - | 0 W/m² | - |
| 1777722214 | 1.11° C | 66% | 1018.7 hPa | 0 mm | - | 0 W/m² | - |
| 1777721911 | 1.11° C | 67% | 1018.6 hPa | 0 mm | - | 0 W/m² | - |
* Rain latest hour (hover to see other rain measurements)
** Current wind speed in m/s (hover to see current wind gust speed)